sensor_id;sensor_type;location;lat;lon;timestamp;pressure;altitude;pressure_sealevel;temperature;humidity
45872;BME280;32333;55.844;-3.210;2023-02-18T00:01:50;99191.19;;;3.37;100.00
45872;BME280;32333;55.844;-3.210;2023-02-18T00:04:18;99190.66;;;2.71;100.00
45872;BME280;32333;55.844;-3.210;2023-02-18T00:06:46;99183.59;;;1.87;100.00
45872;BME280;32333;55.844;-3.210;2023-02-18T00:09:13;99177.16;;;1.56;100.00
45872;BME280;32333;55.844;-3.210;2023-02-18T00:11:41;99170.87;;;1.81;100.00
45872;BME280;32333;55.844;-3.210;2023-02-18T00:14:36;99158.59;;;0.65;100.00
45872;BME280;32333;55.844;-3.210;2023-02-18T00:17:04;99157.10;;;1.63;100.00
45872;BME280;32333;55.844;-3.210;2023-02-18T00:19:31;99140.27;;;1.40;100.00
45872;BME280;32333;55.844;-3.210;2023-02-18T00:22:00;99127.55;;;1.56;100.00
45872;BME280;32333;55.844;-3.210;2023-02-18T00:24:27;99134.16;;;1.58;100.00
45872;BME280;32333;55.844;-3.210;2023-02-18T00:26:55;99128.72;;;1.30;100.00
45872;BME280;32333;55.844;-3.210;2023-02-18T00:29:23;99117.75;;;1.23;100.00
45872;BME280;32333;55.844;-3.210;2023-02-18T00:31:51;99108.52;;;2.16;100.00
45872;BME280;32333;55.844;-3.210;2023-02-18T00:34:19;99098.45;;;1.97;100.00
45872;BME280;32333;55.844;-3.210;2023-02-18T00:36:46;99095.37;;;1.58;100.00
45872;BME280;32333;55.844;-3.210;2023-02-18T00:39:14;99094.91;;;1.75;100.00
45872;BME280;32333;55.844;-3.210;2023-02-18T00:41:42;99090.85;;;1.64;100.00
45872;BME280;32333;55.844;-3.210;2023-02-18T00:44:35;99087.13;;;1.28;100.00
45872;BME280;32333;55.844;-3.210;2023-02-18T00:47:04;99078.83;;;1.79;100.00
45872;BME280;32333;55.844;-3.210;2023-02-18T00:49:31;99072.12;;;2.36;100.00
45872;BME280;32333;55.844;-3.210;2023-02-18T00:52:01;99063.76;;;1.15;100.00
45872;BME280;32333;55.844;-3.210;2023-02-18T00:54:29;99052.47;;;2.27;100.00
45872;BME280;32333;55.844;-3.210;2023-02-18T00:56:56;99053.81;;;2.53;100.00
45872;BME280;32333;55.844;-3.210;2023-02-18T00:59:25;99050.91;;;2.82;100.00
45872;BME280;32333;55.844;-3.210;2023-02-18T01:01:53;99043.92;;;3.01;100.00
45872;BME280;32333;55.844;-3.210;2023-02-18T01:04:21;99038.02;;;3.59;100.00
45872;BME280;32333;55.844;-3.210;2023-02-18T01:06:49;99038.34;;;2.81;100.00
45872;BME280;32333;55.844;-3.210;2023-02-18T01:09:17;99031.30;;;3.18;100.00
45872;BME280;32333;55.844;-3.210;2023-02-18T01:11:44;99021.75;;;2.55;100.00
45872;BME280;32333;55.844;-3.210;2023-02-18T01:14:35;99015.46;;;3.35;100.00
45872;BME280;32333;55.844;-3.210;2023-02-18T01:17:03;98998.86;;;3.41;100.00
45872;BME280;32333;55.844;-3.210;2023-02-18T01:19:30;98987.94;;;2.30;100.00
45872;BME280;32333;55.844;-3.210;2023-02-18T01:22:06;98977.98;;;2.56;100.00
45872;BME280;32333;55.844;-3.210;2023-02-18T01:24:35;98964.08;;;4.19;100.00
45872;BME280;32333;55.844;-3.210;2023-02-18T01:27:03;98955.68;;;4.14;100.00
45872;BME280;32333;55.844;-3.210;2023-02-18T01:29:31;98949.37;;;4.17;100.00
45872;BME280;32333;55.844;-3.210;2023-02-18T01:31:59;98937.00;;;4.09;100.00
45872;BME280;32333;55.844;-3.210;2023-02-18T01:34:26;98924.64;;;4.48;100.00
45872;BME280;32333;55.844;-3.210;2023-02-18T01:36:54;98914.88;;;4.47;100.00
45872;BME280;32333;55.844;-3.210;2023-02-18T01:39:23;98899.85;;;4.07;100.00
45872;BME280;32333;55.844;-3.210;2023-02-18T01:41:50;98897.68;;;3.37;100.00
45872;BME280;32333;55.844;-3.210;2023-02-18T01:44:37;98892.37;;;3.93;100.00
45872;BME280;32333;55.844;-3.210;2023-02-18T01:47:04;98880.04;;;4.80;100.00
45872;BME280;32333;55.844;-3.210;2023-02-18T01:49:34;98879.87;;;4.51;100.00
45872;BME280;32333;55.844;-3.210;2023-02-18T01:52:06;98876.17;;;5.13;100.00
45872;BME280;32333;55.844;-3.210;2023-02-18T01:54:37;98870.82;;;4.95;100.00
45872;BME280;32333;55.844;-3.210;2023-02-18T01:57:08;98862.85;;;5.31;100.00
45872;BME280;32333;55.844;-3.210;2023-02-18T01:59:38;98864.68;;;4.76;100.00
45872;BME280;32333;55.844;-3.210;2023-02-18T02:02:10;98866.44;;;2.59;100.00
45872;BME280;32333;55.844;-3.210;2023-02-18T02:04:39;98849.53;;;4.47;100.00
45872;BME280;32333;55.844;-3.210;2023-02-18T02:07:08;98844.45;;;4.36;100.00
45872;BME280;32333;55.844;-3.210;2023-02-18T02:09:36;98839.59;;;4.01;100.00
45872;BME280;32333;55.844;-3.210;2023-02-18T02:14:45;98825.28;;;4.21;100.00
45872;BME280;32333;55.844;-3.210;2023-02-18T02:17:19;98809.44;;;5.12;100.00
45872;BME280;32333;55.844;-3.210;2023-02-18T02:20:17;98800.37;;;3.93;100.00
45872;BME280;32333;55.844;-3.210;2023-02-18T02:23:58;98795.62;;;4.99;100.00
45872;BME280;32333;55.844;-3.210;2023-02-18T02:26:44;98775.03;;;5.52;100.00
45872;BME280;32333;55.844;-3.210;2023-02-18T02:29:38;98767.24;;;5.15;100.00
45872;BME280;32333;55.844;-3.210;2023-02-18T02:32:22;98756.54;;;5.57;100.00
45872;BME280;32333;55.844;-3.210;2023-02-18T02:34:58;98761.83;;;5.14;100.00
45872;BME280;32333;55.844;-3.210;2023-02-18T02:37:34;98755.95;;;5.93;100.00
45872;BME280;32333;55.844;-3.210;2023-02-18T02:40:16;98753.45;;;4.82;100.00
45872;BME280;32333;55.844;-3.210;2023-02-18T02:44:41;98740.88;;;4.31;100.00
45872;BME280;32333;55.844;-3.210;2023-02-18T02:47:20;98740.31;;;4.35;100.00
45872;BME280;32333;55.844;-3.210;2023-02-18T02:49:58;98736.87;;;5.15;100.00
45872;BME280;32333;55.844;-3.210;2023-02-18T02:52:30;98733.50;;;5.80;100.00
45872;BME280;32333;55.844;-3.210;2023-02-18T02:54:58;98726.54;;;5.48;100.00
45872;BME280;32333;55.844;-3.210;2023-02-18T02:57:44;98716.70;;;4.76;100.00
45872;BME280;32333;55.844;-3.210;2023-02-18T03:00:15;98714.63;;;4.62;100.00
45872;BME280;32333;55.844;-3.210;2023-02-18T03:02:54;98712.41;;;5.15;100.00
45872;BME280;32333;55.844;-3.210;2023-02-18T03:05:36;98709.05;;;5.93;100.00
45872;BME280;32333;55.844;-3.210;2023-02-18T03:08:14;98702.76;;;6.05;100.00
45872;BME280;32333;55.844;-3.210;2023-02-18T03:10:52;98707.98;;;5.05;100.00
45872;BME280;32333;55.844;-3.210;2023-02-18T03:14:45;98696.23;;;5.28;100.00
45872;BME280;32333;55.844;-3.210;2023-02-18T03:17:17;98686.49;;;4.70;100.00
45872;BME280;32333;55.844;-3.210;2023-02-18T03:19:55;98684.34;;;3.92;100.00
45872;BME280;32333;55.844;-3.210;2023-02-18T03:22:28;98680.79;;;3.72;100.00
45872;BME280;32333;55.844;-3.210;2023-02-18T03:24:57;98694.94;;;4.65;100.00
45872;BME280;32333;55.844;-3.210;2023-02-18T03:27:29;98701.27;;;4.95;100.00
45872;BME280;32333;55.844;-3.210;2023-02-18T03:30:02;98707.25;;;5.38;100.00
45872;BME280;32333;55.844;-3.210;2023-02-18T03:32:30;98713.43;;;5.58;100.00
45872;BME280;32333;55.844;-3.210;2023-02-18T03:35:08;98715.99;;;4.76;100.00
45872;BME280;32333;55.844;-3.210;2023-02-18T03:37:39;98711.14;;;5.22;100.00
45872;BME280;32333;55.844;-3.210;2023-02-18T03:40:09;98703.61;;;4.68;100.00
45872;BME280;32333;55.844;-3.210;2023-02-18T03:44:36;98713.48;;;4.37;100.00
45872;BME280;32333;55.844;-3.210;2023-02-18T03:47:04;98716.20;;;4.94;100.00
45872;BME280;32333;55.844;-3.210;2023-02-18T03:49:31;98710.75;;;5.11;100.00
45872;BME280;32333;55.844;-3.210;2023-02-18T03:52:00;98711.24;;;5.29;100.00
45872;BME280;32333;55.844;-3.210;2023-02-18T03:54:27;98715.78;;;5.28;100.00
45872;BME280;32333;55.844;-3.210;2023-02-18T03:56:55;98713.08;;;5.09;100.00
45872;BME280;32333;55.844;-3.210;2023-02-18T03:59:23;98720.86;;;5.38;100.00
45872;BME280;32333;55.844;-3.210;2023-02-18T04:01:51;98726.31;;;5.15;100.00
45872;BME280;32333;55.844;-3.210;2023-02-18T04:04:19;98714.87;;;6.29;100.00
45872;BME280;32333;55.844;-3.210;2023-02-18T04:06:54;98726.54;;;5.05;100.00
45872;BME280;32333;55.844;-3.210;2023-02-18T04:09:22;98745.57;;;5.47;100.00
45872;BME280;32333;55.844;-3.210;2023-02-18T04:11:50;98739.33;;;5.26;100.00
45872;BME280;32333;55.844;-3.210;2023-02-18T04:14:35;98758.54;;;5.10;100.00
45872;BME280;32333;55.844;-3.210;2023-02-18T04:17:02;98741.68;;;4.67;100.00
45872;BME280;32333;55.844;-3.210;2023-02-18T04:19:30;98745.30;;;5.23;100.00
45872;BME280;32333;55.844;-3.210;2023-02-18T04:21:58;98737.81;;;4.82;100.00
45872;BME280;32333;55.844;-3.210;2023-02-18T04:24:26;98748.92;;;5.34;100.00
45872;BME280;32333;55.844;-3.210;2023-02-18T04:26:54;98742.64;;;5.45;100.00
45872;BME280;32333;55.844;-3.210;2023-02-18T04:29:22;98742.03;;;5.20;100.00
45872;BME280;32333;55.844;-3.210;2023-02-18T04:31:49;98726.50;;;4.53;100.00
45872;BME280;32333;55.844;-3.210;2023-02-18T04:34:17;98736.71;;;4.67;100.00
45872;BME280;32333;55.844;-3.210;2023-02-18T04:36:44;98726.04;;;4.56;100.00
45872;BME280;32333;55.844;-3.210;2023-02-18T04:39:11;98740.42;;;5.21;100.00
45872;BME280;32333;55.844;-3.210;2023-02-18T04:41:39;98741.81;;;4.58;100.00
45872;BME280;32333;55.844;-3.210;2023-02-18T04:44:36;98751.27;;;4.66;100.00
45872;BME280;32333;55.844;-3.210;2023-02-18T04:47:05;98752.41;;;4.55;100.00
45872;BME280;32333;55.844;-3.210;2023-02-18T04:49:32;98742.03;;;4.73;100.00
45872;BME280;32333;55.844;-3.210;2023-02-18T04:51:59;98755.97;;;4.83;100.00
45872;BME280;32333;55.844;-3.210;2023-02-18T04:54:27;98762.04;;;4.39;100.00
45872;BME280;32333;55.844;-3.210;2023-02-18T04:56:54;98759.91;;;4.77;100.00
45872;BME280;32333;55.844;-3.210;2023-02-18T04:59:23;98760.15;;;4.24;100.00
45872;BME280;32333;55.844;-3.210;2023-02-18T05:01:50;98773.29;;;4.65;100.00
45872;BME280;32333;55.844;-3.210;2023-02-18T05:04:17;98781.77;;;4.41;100.00
45872;BME280;32333;55.844;-3.210;2023-02-18T05:06:45;98791.46;;;4.36;100.00
45872;BME280;32333;55.844;-3.210;2023-02-18T05:09:14;98805.27;;;4.41;100.00
45872;BME280;32333;55.844;-3.210;2023-02-18T05:11:41;98796.75;;;4.40;100.00
45872;BME280;32333;55.844;-3.210;2023-02-18T05:14:35;98790.31;;;4.62;100.00
45872;BME280;32333;55.844;-3.210;2023-02-18T05:17:02;98785.64;;;4.88;100.00
45872;BME280;32333;55.844;-3.210;2023-02-18T05:19:30;98789.19;;;4.44;100.00
45872;BME280;32333;55.844;-3.210;2023-02-18T05:21:59;98789.20;;;4.47;100.00
45872;BME280;32333;55.844;-3.210;2023-02-18T05:24:26;98791.75;;;5.17;100.00
45872;BME280;32333;55.844;-3.210;2023-02-18T05:26:54;98801.41;;;4.66;100.00
45872;BME280;32333;55.844;-3.210;2023-02-18T05:29:21;98783.50;;;5.34;100.00
45872;BME280;32333;55.844;-3.210;2023-02-18T05:31:48;98790.10;;;5.58;100.00
45872;BME280;32333;55.844;-3.210;2023-02-18T05:34:16;98792.30;;;5.71;100.00
45872;BME280;32333;55.844;-3.210;2023-02-18T05:36:43;98811.00;;;5.13;100.00
45872;BME280;32333;55.844;-3.210;2023-02-18T05:39:12;98824.66;;;4.93;100.00
45872;BME280;32333;55.844;-3.210;2023-02-18T05:41:39;98821.53;;;5.54;100.00
45872;BME280;32333;55.844;-3.210;2023-02-18T05:44:36;98815.77;;;5.11;100.00
45872;BME280;32333;55.844;-3.210;2023-02-18T05:47:05;98821.01;;;4.33;100.00
45872;BME280;32333;55.844;-3.210;2023-02-18T05:49:34;98826.11;;;5.68;100.00
45872;BME280;32333;55.844;-3.210;2023-02-18T05:52:03;98828.27;;;4.79;100.00
45872;BME280;32333;55.844;-3.210;2023-02-18T05:54:31;98831.19;;;5.48;100.00
45872;BME280;32333;55.844;-3.210;2023-02-18T05:56:59;98835.07;;;5.53;100.00
45872;BME280;32333;55.844;-3.210;2023-02-18T05:59:27;98840.94;;;5.07;100.00
45872;BME280;32333;55.844;-3.210;2023-02-18T06:01:55;98824.75;;;4.82;100.00
45872;BME280;32333;55.844;-3.210;2023-02-18T06:04:23;98829.30;;;4.67;100.00
45872;BME280;32333;55.844;-3.210;2023-02-18T06:06:51;98839.75;;;4.71;100.00
45872;BME280;32333;55.844;-3.210;2023-02-18T06:09:19;98837.44;;;4.99;100.00
45872;BME280;32333;55.844;-3.210;2023-02-18T06:11:47;98838.60;;;4.58;100.00
45872;BME280;32333;55.844;-3.210;2023-02-18T06:14:35;98823.06;;;5.12;100.00
45872;BME280;32333;55.844;-3.210;2023-02-18T06:17:02;98848.65;;;5.24;100.00
45872;BME280;32333;55.844;-3.210;2023-02-18T06:19:29;98852.67;;;4.83;100.00
45872;BME280;32333;55.844;-3.210;2023-02-18T06:21:57;98847.33;;;4.99;100.00
45872;BME280;32333;55.844;-3.210;2023-02-18T06:24:26;98851.83;;;5.41;100.00
45872;BME280;32333;55.844;-3.210;2023-02-18T06:26:54;98848.13;;;4.92;100.00
45872;BME280;32333;55.844;-3.210;2023-02-18T06:29:21;98862.61;;;5.24;100.00
45872;BME280;32333;55.844;-3.210;2023-02-18T06:31:50;98857.01;;;5.26;100.00
45872;BME280;32333;55.844;-3.210;2023-02-18T06:34:19;98858.21;;;5.32;100.00
45872;BME280;32333;55.844;-3.210;2023-02-18T06:36:49;98868.95;;;5.09;100.00
45872;BME280;32333;55.844;-3.210;2023-02-18T06:39:16;98877.05;;;5.49;100.00
45872;BME280;32333;55.844;-3.210;2023-02-18T06:41:44;98869.84;;;5.42;100.00
45872;BME280;32333;55.844;-3.210;2023-02-18T06:44:36;98884.72;;;5.31;100.00
45872;BME280;32333;55.844;-3.210;2023-02-18T06:47:04;98881.54;;;5.35;100.00
45872;BME280;32333;55.844;-3.210;2023-02-18T06:49:32;98889.60;;;5.24;100.00
45872;BME280;32333;55.844;-3.210;2023-02-18T06:51:59;98889.15;;;5.77;100.00
45872;BME280;32333;55.844;-3.210;2023-02-18T06:54:27;98883.64;;;5.22;100.00
45872;BME280;32333;55.844;-3.210;2023-02-18T06:56:55;98906.35;;;5.26;100.00
45872;BME280;32333;55.844;-3.210;2023-02-18T06:59:23;98909.78;;;5.22;100.00
45872;BME280;32333;55.844;-3.210;2023-02-18T07:01:51;98907.98;;;5.10;100.00
45872;BME280;32333;55.844;-3.210;2023-02-18T07:04:19;98907.76;;;5.53;100.00
45872;BME280;32333;55.844;-3.210;2023-02-18T07:06:47;98916.76;;;5.24;100.00
45872;BME280;32333;55.844;-3.210;2023-02-18T07:09:15;98925.47;;;4.89;100.00
45872;BME280;32333;55.844;-3.210;2023-02-18T07:11:44;98923.98;;;5.14;100.00
45872;BME280;32333;55.844;-3.210;2023-02-18T07:14:35;98932.03;;;5.22;100.00
45872;BME280;32333;55.844;-3.210;2023-02-18T07:17:04;98936.47;;;5.01;100.00
45872;BME280;32333;55.844;-3.210;2023-02-18T07:19:35;98946.49;;;5.42;100.00
45872;BME280;32333;55.844;-3.210;2023-02-18T07:22:02;98956.74;;;5.31;100.00
45872;BME280;32333;55.844;-3.210;2023-02-18T07:24:30;98966.64;;;5.30;100.00
45872;BME280;32333;55.844;-3.210;2023-02-18T07:26:58;98984.88;;;5.35;100.00
45872;BME280;32333;55.844;-3.210;2023-02-18T07:29:26;98997.46;;;5.82;100.00
45872;BME280;32333;55.844;-3.210;2023-02-18T07:31:54;99003.88;;;6.02;100.00
45872;BME280;32333;55.844;-3.210;2023-02-18T07:34:23;99013.49;;;4.81;100.00
45872;BME280;32333;55.844;-3.210;2023-02-18T07:36:50;99034.21;;;4.25;100.00
45872;BME280;32333;55.844;-3.210;2023-02-18T07:39:17;99035.69;;;4.60;100.00
45872;BME280;32333;55.844;-3.210;2023-02-18T07:41:45;99046.39;;;4.15;100.00
45872;BME280;32333;55.844;-3.210;2023-02-18T07:44:38;99056.39;;;3.30;100.00
45872;BME280;32333;55.844;-3.210;2023-02-18T07:47:08;99075.56;;;3.05;100.00
45872;BME280;32333;55.844;-3.210;2023-02-18T07:49:38;99083.32;;;2.92;100.00
45872;BME280;32333;55.844;-3.210;2023-02-18T07:52:06;99084.88;;;2.83;100.00
45872;BME280;32333;55.844;-3.210;2023-02-18T07:54:34;99089.63;;;2.38;100.00
45872;BME280;32333;55.844;-3.210;2023-02-18T07:57:01;99098.89;;;1.24;100.00
45872;BME280;32333;55.844;-3.210;2023-02-18T07:59:29;99106.45;;;1.87;100.00
45872;BME280;32333;55.844;-3.210;2023-02-18T08:01:57;99116.19;;;1.51;100.00
45872;BME280;32333;55.844;-3.210;2023-02-18T08:04:25;99120.74;;;1.39;100.00
45872;BME280;32333;55.844;-3.210;2023-02-18T08:06:52;99125.89;;;1.16;100.00
45872;BME280;32333;55.844;-3.210;2023-02-18T08:09:20;99129.53;;;1.37;100.00
45872;BME280;32333;55.844;-3.210;2023-02-18T08:11:47;99137.06;;;1.38;100.00
45872;BME280;32333;55.844;-3.210;2023-02-18T08:14:35;99144.46;;;1.80;100.00
45872;BME280;32333;55.844;-3.210;2023-02-18T08:17:03;99152.36;;;1.46;100.00
45872;BME280;32333;55.844;-3.210;2023-02-18T08:19:31;99153.99;;;0.89;100.00
45872;BME280;32333;55.844;-3.210;2023-02-18T08:22:00;99163.79;;;0.95;100.00
45872;BME280;32333;55.844;-3.210;2023-02-18T08:24:28;99172.79;;;0.57;100.00
45872;BME280;32333;55.844;-3.210;2023-02-18T08:26:55;99173.77;;;1.38;100.00
45872;BME280;32333;55.844;-3.210;2023-02-18T08:29:24;99183.55;;;0.60;100.00
45872;BME280;32333;55.844;-3.210;2023-02-18T08:31:51;99186.00;;;0.94;100.00
45872;BME280;32333;55.844;-3.210;2023-02-18T08:34:19;99193.21;;;1.43;100.00
45872;BME280;32333;55.844;-3.210;2023-02-18T08:36:49;99206.32;;;1.31;100.00
45872;BME280;32333;55.844;-3.210;2023-02-18T08:39:16;99211.36;;;1.47;100.00
45872;BME280;32333;55.844;-3.210;2023-02-18T08:41:44;99217.44;;;1.57;100.00
45872;BME280;32333;55.844;-3.210;2023-02-18T08:44:36;99220.27;;;1.91;100.00
45872;BME280;32333;55.844;-3.210;2023-02-18T08:47:04;99226.22;;;1.96;100.00
45872;BME280;32333;55.844;-3.210;2023-02-18T08:49:31;99233.81;;;1.77;100.00
45872;BME280;32333;55.844;-3.210;2023-02-18T08:52:01;99239.95;;;1.84;100.00
45872;BME280;32333;55.844;-3.210;2023-02-18T08:54:28;99241.76;;;2.69;100.00
45872;BME280;32333;55.844;-3.210;2023-02-18T08:56:56;99249.39;;;1.86;100.00
45872;BME280;32333;55.844;-3.210;2023-02-18T08:59:24;99251.85;;;2.35;100.00
45872;BME280;32333;55.844;-3.210;2023-02-18T09:01:52;99262.68;;;1.42;100.00
45872;BME280;32333;55.844;-3.210;2023-02-18T09:04:19;99271.33;;;1.51;100.00
45872;BME280;32333;55.844;-3.210;2023-02-18T09:06:47;99273.61;;;2.25;100.00
45872;BME280;32333;55.844;-3.210;2023-02-18T09:09:15;99277.00;;;2.39;100.00
45872;BME280;32333;55.844;-3.210;2023-02-18T09:11:42;99283.90;;;2.74;100.00
45872;BME280;32333;55.844;-3.210;2023-02-18T09:14:35;99291.09;;;2.39;100.00
45872;BME280;32333;55.844;-3.210;2023-02-18T09:17:03;99290.87;;;1.89;100.00
45872;BME280;32333;55.844;-3.210;2023-02-18T09:19:30;99298.88;;;1.80;100.00
45872;BME280;32333;55.844;-3.210;2023-02-18T09:21:59;99304.07;;;2.53;100.00
45872;BME280;32333;55.844;-3.210;2023-02-18T09:24:26;99308.69;;;2.38;100.00
45872;BME280;32333;55.844;-3.210;2023-02-18T09:26:54;99309.21;;;1.86;100.00
45872;BME280;32333;55.844;-3.210;2023-02-18T09:29:22;99313.27;;;2.70;100.00
45872;BME280;32333;55.844;-3.210;2023-02-18T09:31:49;99317.60;;;2.89;100.00
45872;BME280;32333;55.844;-3.210;2023-02-18T09:34:17;99320.99;;;2.86;100.00
45872;BME280;32333;55.844;-3.210;2023-02-18T09:36:44;99324.36;;;3.08;100.00
45872;BME280;32333;55.844;-3.210;2023-02-18T09:39:13;99328.62;;;3.06;100.00
45872;BME280;32333;55.844;-3.210;2023-02-18T09:41:43;99326.18;;;1.96;100.00
45872;BME280;32333;55.844;-3.210;2023-02-18T09:44:37;99336.84;;;1.14;100.00
45872;BME280;32333;55.844;-3.210;2023-02-18T09:47:10;99337.58;;;1.51;100.00
45872;BME280;32333;55.844;-3.210;2023-02-18T09:49:44;99347.00;;;2.45;100.00
45872;BME280;32333;55.844;-3.210;2023-02-18T09:52:17;99354.00;;;2.31;100.00
45872;BME280;32333;55.844;-3.210;2023-02-18T09:54:48;99356.66;;;2.46;100.00
45872;BME280;32333;55.844;-3.210;2023-02-18T09:57:21;99358.10;;;2.01;100.00
45872;BME280;32333;55.844;-3.210;2023-02-18T09:59:56;99350.93;;;2.11;100.00
45872;BME280;32333;55.844;-3.210;2023-02-18T10:02:25;99349.60;;;2.01;100.00
45872;BME280;32333;55.844;-3.210;2023-02-18T10:04:54;99355.51;;;1.44;100.00
45872;BME280;32333;55.844;-3.210;2023-02-18T10:07:27;99353.89;;;2.13;100.00
45872;BME280;32333;55.844;-3.210;2023-02-18T10:09:56;99356.95;;;1.90;100.00
45872;BME280;32333;55.844;-3.210;2023-02-18T10:14:36;99366.45;;;2.83;100.00
45872;BME280;32333;55.844;-3.210;2023-02-18T10:17:03;99367.11;;;2.30;100.00
45872;BME280;32333;55.844;-3.210;2023-02-18T10:19:33;99369.59;;;2.18;100.00
45872;BME280;32333;55.844;-3.210;2023-02-18T10:22:04;99374.76;;;2.66;100.00
45872;BME280;32333;55.844;-3.210;2023-02-18T10:24:36;99372.82;;;3.32;100.00
45872;BME280;32333;55.844;-3.210;2023-02-18T10:27:07;99374.11;;;2.34;100.00
45872;BME280;32333;55.844;-3.210;2023-02-18T10:29:35;99367.01;;;2.30;100.00
45872;BME280;32333;55.844;-3.210;2023-02-18T10:32:09;99364.81;;;2.90;100.00
45872;BME280;32333;55.844;-3.210;2023-02-18T10:34:46;99359.26;;;3.66;100.00
45872;BME280;32333;55.844;-3.210;2023-02-18T10:37:36;99360.19;;;3.97;100.00
45872;BME280;32333;55.844;-3.210;2023-02-18T10:40:12;99365.02;;;2.60;100.00
45872;BME280;32333;55.844;-3.210;2023-02-18T10:44:42;99368.94;;;3.86;100.00
45872;BME280;32333;55.844;-3.210;2023-02-18T10:47:32;99372.93;;;4.03;100.00
45872;BME280;32333;55.844;-3.210;2023-02-18T10:50:10;99372.70;;;2.31;100.00
45872;BME280;32333;55.844;-3.210;2023-02-18T10:52:42;99371.29;;;3.19;100.00
45872;BME280;32333;55.844;-3.210;2023-02-18T10:55:13;99375.76;;;3.25;100.00
45872;BME280;32333;55.844;-3.210;2023-02-18T10:57:50;99383.04;;;3.13;100.00
45872;BME280;32333;55.844;-3.210;2023-02-18T11:00:20;99387.87;;;3.05;100.00
45872;BME280;32333;55.844;-3.210;2023-02-18T11:03:16;99386.39;;;2.57;100.00
45872;BME280;32333;55.844;-3.210;2023-02-18T11:05:49;99385.00;;;3.59;100.00
45872;BME280;32333;55.844;-3.210;2023-02-18T11:08:19;99382.07;;;2.75;100.00
45872;BME280;32333;55.844;-3.210;2023-02-18T11:10:48;99373.64;;;3.88;100.00
45872;BME280;32333;55.844;-3.210;2023-02-18T11:14:40;99382.68;;;3.61;100.00
45872;BME280;32333;55.844;-3.210;2023-02-18T11:17:15;99384.20;;;4.47;100.00
45872;BME280;32333;55.844;-3.210;2023-02-18T11:19:51;99386.66;;;3.04;100.00
45872;BME280;32333;55.844;-3.210;2023-02-18T11:22:21;99386.82;;;3.67;100.00
45872;BME280;32333;55.844;-3.210;2023-02-18T11:24:55;99386.64;;;2.97;100.00
45872;BME280;32333;55.844;-3.210;2023-02-18T11:27:26;99387.69;;;2.27;100.00
45872;BME280;32333;55.844;-3.210;2023-02-18T11:30:00;99389.45;;;2.86;100.00
45872;BME280;32333;55.844;-3.210;2023-02-18T11:32:29;99390.16;;;2.71;100.00
45872;BME280;32333;55.844;-3.210;2023-02-18T11:35:02;99386.13;;;3.66;100.00
45872;BME280;32333;55.844;-3.210;2023-02-18T11:37:32;99388.09;;;3.19;100.00
45872;BME280;32333;55.844;-3.210;2023-02-18T11:40:02;99385.61;;;3.77;100.00
45872;BME280;32333;55.844;-3.210;2023-02-18T11:44:37;99388.62;;;4.00;100.00
45872;BME280;32333;55.844;-3.210;2023-02-18T11:47:19;99389.46;;;3.35;100.00
45872;BME280;32333;55.844;-3.210;2023-02-18T11:50:00;99391.66;;;3.55;100.00
45872;BME280;32333;55.844;-3.210;2023-02-18T11:52:33;99390.83;;;3.95;100.00
45872;BME280;32333;55.844;-3.210;2023-02-18T11:55:05;99399.00;;;4.17;100.00
45872;BME280;32333;55.844;-3.210;2023-02-18T11:57:37;99402.12;;;3.23;100.00
45872;BME280;32333;55.844;-3.210;2023-02-18T12:00:20;99391.16;;;5.05;100.00
45872;BME280;32333;55.844;-3.210;2023-02-18T12:02:49;99396.85;;;3.71;100.00
45872;BME280;32333;55.844;-3.210;2023-02-18T12:05:20;99393.96;;;3.36;100.00
45872;BME280;32333;55.844;-3.210;2023-02-18T12:07:50;99387.14;;;4.15;100.00
45872;BME280;32333;55.844;-3.210;2023-02-18T12:10:25;99382.13;;;4.02;100.00
45872;BME280;32333;55.844;-3.210;2023-02-18T12:14:36;99382.29;;;5.48;100.00
45872;BME280;32333;55.844;-3.210;2023-02-18T12:17:18;99384.93;;;3.03;100.00
45872;BME280;32333;55.844;-3.210;2023-02-18T12:20:02;99386.20;;;2.83;100.00
45872;BME280;32333;55.844;-3.210;2023-02-18T12:22:41;99377.01;;;3.58;100.00
45872;BME280;32333;55.844;-3.210;2023-02-18T12:25:22;99373.20;;;4.26;100.00
45872;BME280;32333;55.844;-3.210;2023-02-18T12:28:00;99376.13;;;4.17;100.00
45872;BME280;32333;55.844;-3.210;2023-02-18T12:30:56;99372.90;;;4.99;100.00
45872;BME280;32333;55.844;-3.210;2023-02-18T12:33:37;99372.29;;;5.30;100.00
45872;BME280;32333;55.844;-3.210;2023-02-18T12:36:15;99369.67;;;4.74;100.00
45872;BME280;32333;55.844;-3.210;2023-02-18T12:38:54;99367.27;;;5.08;100.00
45872;BME280;32333;55.844;-3.210;2023-02-18T12:41:39;99368.67;;;5.30;100.00
45872;BME280;32333;55.844;-3.210;2023-02-18T12:44:40;99367.06;;;5.61;100.00
45872;BME280;32333;55.844;-3.210;2023-02-18T12:47:27;99374.09;;;5.70;100.00
45872;BME280;32333;55.844;-3.210;2023-02-18T12:50:07;99366.75;;;5.86;100.00
45872;BME280;32333;55.844;-3.210;2023-02-18T12:52:52;99372.11;;;5.24;100.00
45872;BME280;32333;55.844;-3.210;2023-02-18T12:55:39;99374.67;;;4.87;100.00
45872;BME280;32333;55.844;-3.210;2023-02-18T12:58:21;99374.35;;;5.55;100.00
45872;BME280;32333;55.844;-3.210;2023-02-18T13:01:05;99359.14;;;6.02;100.00
45872;BME280;32333;55.844;-3.210;2023-02-18T13:04:08;99365.50;;;5.36;100.00
45872;BME280;32333;55.844;-3.210;2023-02-18T13:07:00;99365.66;;;4.60;100.00
45872;BME280;32333;55.844;-3.210;2023-02-18T13:09:42;99358.39;;;6.24;100.00
45872;BME280;32333;55.844;-3.210;2023-02-18T13:14:40;99357.94;;;6.14;100.00
45872;BME280;32333;55.844;-3.210;2023-02-18T13:17:12;99356.65;;;6.09;100.00
45872;BME280;32333;55.844;-3.210;2023-02-18T13:19:45;99357.38;;;5.09;100.00
45872;BME280;32333;55.844;-3.210;2023-02-18T13:22:15;99349.95;;;5.55;100.00
45872;BME280;32333;55.844;-3.210;2023-02-18T13:24:47;99346.98;;;5.34;100.00
45872;BME280;32333;55.844;-3.210;2023-02-18T13:27:20;99339.64;;;6.04;100.00
45872;BME280;32333;55.844;-3.210;2023-02-18T13:29:54;99346.91;;;4.92;100.00
45872;BME280;32333;55.844;-3.210;2023-02-18T13:32:28;99338.31;;;6.31;100.00
45872;BME280;32333;55.844;-3.210;2023-02-18T13:35:04;99348.15;;;5.21;100.00
45872;BME280;32333;55.844;-3.210;2023-02-18T13:37:49;99342.57;;;6.18;100.00